NPT weather

Public forecast

Using degrees Fahrenheit for public forecast. Weather courtesy of forecast.io.

Current aviation weather report (METAR) for Newport State Airport

Retrieved 2020/08/11 00:53 UTC (41 minutes ago):

KUUU 110053Z AUTO 21007KT 8SM CLR 24/23 A2997 RMK AO2 SLP147 T02440228

Closest aviation forecast (TAF) to Newport State Airport

Closest forecast is Theodore Francis Green State Airport, 13.5 nm (25.1 km) NNW. Retrieved 2020-08-11 00:28 UTC (1 hour ago):

TAF KPVD 102325Z 1100/1124 21010G18KT P6SM FEW050 SCT250 FM110200 22006KT P6SM FEW080 FM111500 20009KT P6SM SCT070 FM112000 19011KT P6SM SCT120